Time;durP1;ratioP1;P1;durP2;ratioP2;P2;SDS_P1;SDS_P2;PMS_P1;PMS_P2;Temp;Humidity;BMP_temperature;BMP_pressure;BME280_temperature;BME280_humidity;BME280_pressure;Samples;Min_cycle;Max_cycle;Signal;HPM_P1;HPM_P2
2021/08/03 00:00:35;;;;;;;3.25;1.40;;;;;;;24.17;51.31;101173.13;5093787;28;20048;-65
2021/08/03 00:03:06;;;;;;;3.83;1.60;;;;;;;24.15;51.30;101167.13;5093749;28;20048;-65
2021/08/03 00:05:39;;;;;;;3.00;1.27;;;;;;;24.16;50.95;101176.00;5093566;28;20508;-65
2021/08/03 00:08:16;;;;;;;3.40;1.80;;;;;;;24.06;51.32;101179.69;5093643;28;20461;-65
2021/08/03 00:10:43;;;;;;;2.88;1.70;;;;;;;23.99;51.90;101175.16;5093521;28;20101;-65
2021/08/03 00:13:10;;;;;;;3.88;1.90;;;;;;;23.95;52.13;101174.63;5093527;28;20052;-65
2021/08/03 00:15:37;;;;;;;5.18;2.50;;;;;;;23.94;52.49;101170.25;5093369;28;20040;-65
2021/08/03 00:18:04;;;;;;;2.60;2.00;;;;;;;23.95;52.59;101172.78;5093507;28;20040;-65
2021/08/03 00:20:30;;;;;;;4.07;2.10;;;;;;;23.91;53.27;101168.75;5093293;28;20494;-65
2021/08/03 00:23:00;;;;;;;7.70;2.70;;;;;;;23.85;53.64;101171.22;5092652;28;20264;-65
2021/08/03 00:25:28;;;;;;;5.72;2.95;;;;;;;23.79;54.04;101170.03;5093161;28;20112;-65
2021/08/03 00:27:56;;;;;;;6.80;3.10;;;;;;;23.60;54.85;101172.00;5093167;28;20118;-65
2021/08/03 00:30:23;;;;;;;6.15;3.25;;;;;;;23.60;54.73;101171.16;5093120;28;20097;-65
2021/08/03 00:32:52;;;;;;;6.95;3.67;;;;;;;23.58;55.07;101173.13;5093152;28;20098;-65
2021/08/03 00:35:19;;;;;;;5.40;3.95;;;;;;;23.53;55.11;101176.31;5093016;28;20101;-65
2021/08/03 00:37:46;;;;;;;5.55;3.65;;;;;;;23.47;55.65;101169.75;5092906;28;20052;-65
2021/08/03 00:40:15;;;;;;;5.35;4.10;;;;;;;23.44;55.55;101175.44;5092861;28;20559;-65
2021/08/03 00:42:42;;;;;;;4.75;3.45;;;;;;;23.38;55.78;101172.56;5093135;28;20097;-65
2021/08/03 00:45:10;;;;;;;6.03;3.45;;;;;;;23.24;56.48;101169.50;5092890;28;20048;-65
2021/08/03 00:47:36;;;;;;;7.60;3.75;;;;;;;23.22;56.52;101170.66;5092903;28;20093;-65
2021/08/03 00:50:04;;;;;;;5.13;3.88;;;;;;;23.19;56.95;101161.09;5092786;28;20097;-65
2021/08/03 00:52:30;;;;;;;7.13;3.33;;;;;;;23.20;56.74;101164.59;5092667;28;20048;-65
2021/08/03 00:54:57;;;;;;;4.13;3.15;;;;;;;23.19;56.93;101162.94;5092530;28;20135;-65
2021/08/03 00:57:25;;;;;;;6.88;3.33;;;;;;;23.16;56.98;101166.78;5092532;28;20052;-65
2021/08/03 00:59:51;;;;;;;7.70;3.40;;;;;;;22.98;57.34;101169.47;5092593;28;20113;-65
2021/08/03 01:02:18;;;;;;;5.80;3.67;;;;;;;23.02;57.41;101165.50;5092700;28;20113;-65
2021/08/03 01:04:45;;;;;;;6.45;3.60;;;;;;;23.04;57.43;101171.53;5092530;28;20539;-65
2021/08/03 01:07:33;;;;;;;5.05;3.17;;;;;;;23.07;57.14;101162.34;5092679;28;20086;-65
2021/08/03 01:10:15;;;;;;;7.38;3.30;;;;;;;23.07;57.59;101167.69;5092427;28;20490;-65
2021/08/03 01:13:00;;;;;;;4.15;3.10;;;;;;;23.06;57.63;101166.88;5092371;28;20093;-66
2021/08/03 01:15:49;;;;;;;5.23;3.27;;;;;;;22.99;57.81;101172.03;5092438;28;20052;-65
2021/08/03 01:18:45;;;;;;;4.93;3.30;;;;;;;22.99;57.90;101163.13;5092201;28;20352;-65
2021/08/03 01:21:24;;;;;;;5.30;3.50;;;;;;;22.98;57.77;101164.97;5092282;28;20471;-65
2021/08/03 01:24:15;;;;;;;6.22;3.65;;;;;;;23.03;57.92;101159.13;5092309;28;20093;-65
2021/08/03 01:27:09;;;;;;;9.02;3.17;;;;;;;23.04;57.67;101163.50;5092255;28;20048;-65
2021/08/03 01:29:37;;;;;;;4.07;2.67;;;;;;;23.12;57.54;101170.72;5092179;28;20098;-65
2021/08/03 01:32:08;;;;;;;6.70;3.13;;;;;;;23.09;57.51;101169.22;5092253;28;20044;-65
2021/08/03 01:34:41;;;;;;;4.70;3.20;;;;;;;23.03;57.62;101163.66;5092093;28;20051;-65
2021/08/03 01:37:10;;;;;;;4.68;3.17;;;;;;;22.99;57.80;101158.63;5092087;28;20101;-65
2021/08/03 01:39:40;;;;;;;6.95;3.50;;;;;;;22.93;57.71;101164.63;5092078;28;20044;-66
2021/08/03 01:42:08;;;;;;;5.55;3.22;;;;;;;22.90;58.27;101167.59;5092338;28;20048;-65
2021/08/03 01:44:37;;;;;;;6.05;3.40;;;;;;;22.90;58.29;101164.91;5092310;28;20048;-65
2021/08/03 01:47:05;;;;;;;7.10;3.70;;;;;;;22.83;58.42;101175.41;5092087;28;20048;-65
2021/08/03 01:49:35;;;;;;;6.78;3.65;;;;;;;22.83;58.60;101178.09;5091925;28;20044;-65
2021/08/03 01:52:06;;;;;;;4.80;3.15;;;;;;;22.80;58.58;101177.56;5091904;28;20048;-65
2021/08/03 01:54:34;;;;;;;7.38;3.95;;;;;;;22.76;58.90;101174.34;5091584;28;20057;-65
2021/08/03 01:57:03;;;;;;;6.88;3.58;;;;;;;22.76;58.73;101171.69;5091897;28;20102;-65
2021/08/03 01:59:31;;;;;;;5.05;3.50;;;;;;;22.75;58.93;101179.88;5091798;28;20047;-65
2021/08/03 02:01:59;;;;;;;5.28;3.10;;;;;;;22.74;58.90;101173.69;5091939;28;20395;-65
2021/08/03 02:04:28;;;;;;;4.57;3.20;;;;;;;22.72;59.15;101172.16;5091797;28;20512;-65
2021/08/03 02:06:56;;;;;;;4.80;3.13;;;;;;;22.69;59.14;101176.00;5091960;28;20087;-65
2021/08/03 02:09:23;;;;;;;4.60;3.20;;;;;;;22.66;59.42;101168.28;5091795;28;20113;-65
2021/08/03 02:11:51;;;;;;;4.95;3.30;;;;;;;22.62;59.49;101166.91;5091994;28;20044;-65
2021/08/03 02:14:21;;;;;;;4.47;3.20;;;;;;;22.62;59.61;101169.59;5091907;28;20052;-65
2021/08/03 02:16:48;;;;;;;6.28;3.55;;;;;;;22.56;59.75;101176.38;5091870;28;20044;-65
2021/08/03 02:19:15;;;;;;;4.20;3.45;;;;;;;22.57;59.54;101174.56;5091833;28;20391;-65
2021/08/03 02:21:43;;;;;;;4.20;3.40;;;;;;;22.55;59.91;101173.88;5091797;28;20048;-65
2021/08/03 02:24:10;;;;;;;7.38;3.40;;;;;;;22.54;59.91;101170.38;5091708;28;20456;-66
2021/08/03 02:26:37;;;;;;;3.80;3.33;;;;;;;22.53;60.05;101179.38;5091812;28;20082;-65
2021/08/03 02:29:05;;;;;;;4.35;3.67;;;;;;;22.53;59.89;101173.19;5091675;28;20048;-65
2021/08/03 02:31:50;;;;;;;4.53;3.97;;;;;;;22.54;59.68;101159.66;5091619;28;20451;-65
2021/08/03 02:34:28;;;;;;;5.78;4.10;;;;;;;22.48;59.72;101161.09;5091544;28;20045;-65
2021/08/03 02:37:02;;;;;;;5.05;3.67;;;;;;;22.48;59.88;101160.28;5091546;28;20048;-65
2021/08/03 02:39:30;;;;;;;7.65;4.45;;;;;;;22.46;59.76;101159.59;5091676;28;20105;-65
2021/08/03 02:41:58;;;;;;;5.07;4.10;;;;;;;22.46;59.89;101154.22;5091566;28;20074;-65
2021/08/03 02:44:27;;;;;;;5.90;4.72;;;;;;;22.44;59.70;101151.72;5091438;28;20105;-65
2021/08/03 02:46:55;;;;;;;6.15;4.45;;;;;;;22.41;59.83;101162.75;5094747;28;20090;-65
2021/08/03 02:49:35;;;;;;;6.93;4.45;;;;;;;22.40;60.18;101158.38;5095074;28;20044;-65
2021/08/03 02:52:05;;;;;;;8.85;4.68;;;;;;;22.38;60.11;101167.56;5095325;28;20048;-65
2021/08/03 02:54:36;;;;;;;6.35;4.55;;;;;;;22.33;60.17;101167.97;5094773;28;20048;-65
2021/08/03 02:57:06;;;;;;;9.15;5.35;;;;;;;22.34;60.10;101164.31;5094988;28;20101;-65
2021/08/03 02:59:37;;;;;;;7.45;5.60;;;;;;;22.32;60.08;101164.47;5094857;28;20406;-65
2021/08/03 03:02:11;;;;;;;6.80;4.70;;;;;;;22.33;60.04;101160.81;5094945;28;20047;-65
2021/08/03 03:05:01;;;;;;;7.25;4.82;;;;;;;22.33;60.13;101159.94;5094929;28;20536;-65
2021/08/03 03:07:33;;;;;;;6.78;4.40;;;;;;;22.27;60.14;101156.06;5094772;28;20052;-65
2021/08/03 03:10:03;;;;;;;7.03;4.32;;;;;;;22.26;60.08;101157.06;5094841;28;20102;-65
2021/08/03 03:12:33;;;;;;;6.20;4.50;;;;;;;22.24;60.01;101160.88;5094660;28;20048;-65
2021/08/03 03:15:04;;;;;;;8.23;4.70;;;;;;;22.26;60.30;101162.41;5094661;28;20040;-65
2021/08/03 03:17:35;;;;;;;7.00;4.47;;;;;;;22.27;60.00;101168.59;5094438;28;20102;-65
2021/08/03 03:20:04;;;;;;;7.95;4.40;;;;;;;22.21;60.23;101172.72;5076604;28;20504;-66
2021/08/03 03:22:35;;;;;;;7.20;4.85;;;;;;;22.22;60.59;101173.56;5094462;28;20052;-65
2021/08/03 03:25:04;;;;;;;8.07;5.05;;;;;;;22.24;60.28;101174.25;5094448;28;20044;-65
2021/08/03 03:27:31;;;;;;;7.95;4.78;;;;;;;22.24;60.27;101166.22;5094372;28;20044;-65
2021/08/03 03:29:59;;;;;;;11.45;5.13;;;;;;;22.21;60.57;101183.41;5094417;28;20051;-65
2021/08/03 03:32:30;;;;;;;9.05;4.85;;;;;;;22.19;60.62;101177.38;5094231;28;20089;-65
2021/08/03 03:34:58;;;;;;;8.85;4.72;;;;;;;22.16;60.85;101178.53;5094279;28;20070;-65
2021/08/03 03:37:28;;;;;;;8.18;5.10;;;;;;;22.17;60.77;101179.38;5094331;28;20040;-65
2021/08/03 03:39:57;;;;;;;7.63;4.72;;;;;;;22.11;60.87;101180.81;5094399;28;20114;-65
2021/08/03 03:42:35;;;;;;;6.65;4.80;;;;;;;22.07;60.78;101190.13;5094140;28;20051;-65
2021/08/03 03:45:03;;;;;;;5.57;4.40;;;;;;;22.09;60.99;101201.50;5094128;28;20048;-65
2021/08/03 03:47:34;;;;;;;8.00;4.60;;;;;;;22.03;60.95;101196.78;5094023;28;20505;-65
2021/08/03 03:50:23;;;;;;;12.25;4.70;;;;;;;21.98;61.29;101197.22;5094389;28;20043;-65
2021/08/03 03:52:57;;;;;;;7.97;5.20;;;;;;;21.98;61.24;101199.91;5093974;28;20452;-65
2021/08/03 03:55:24;;;;;;;9.15;5.43;;;;;;;21.97;61.43;101210.75;5093724;28;20105;-65
2021/08/03 03:57:50;;;;;;;9.75;5.80;;;;;;;21.96;61.34;101207.22;5092583;28;20480;-65
2021/08/03 04:00:19;;;;;;;7.38;5.13;;;;;;;21.98;61.53;101199.06;5093644;28;20051;-65
2021/08/03 04:02:50;;;;;;;9.38;5.30;;;;;;;21.99;61.02;101206.06;5093709;28;20048;-65
2021/08/03 04:05:17;;;;;;;9.27;5.68;;;;;;;22.00;61.12;101211.28;5093633;28;20130;-65
2021/08/03 04:07:49;;;;;;;6.80;5.05;;;;;;;22.00;61.25;101216.63;5093675;28;20044;-65
2021/08/03 04:10:18;;;;;;;7.32;5.25;;;;;;;22.05;61.23;101212.66;5093529;28;20040;-65
2021/08/03 04:12:46;;;;;;;7.60;5.13;;;;;;;22.03;61.42;101210.16;5093604;28;20047;-65
2021/08/03 04:15:14;;;;;;;7.20;4.85;;;;;;;22.04;61.35;101210.97;5093590;28;20451;-65
2021/08/03 04:17:41;;;;;;;9.02;5.18;;;;;;;22.02;61.62;101211.97;5093635;28;20113;-65
2021/08/03 04:20:09;;;;;;;7.65;4.45;;;;;;;22.02;61.32;101217.31;5093302;28;20490;-65
2021/08/03 04:22:35;;;;;;;6.00;4.70;;;;;;;21.98;61.42;101210.59;5093408;28;20074;-65
2021/08/03 04:25:03;;;;;;;7.82;4.80;;;;;;;21.98;61.65;101223.94;5093285;28;20044;-65
2021/08/03 04:27:30;;;;;;;5.95;5.03;;;;;;;21.95;61.42;101218.91;5093140;28;20048;-65
2021/08/03 04:29:57;;;;;;;7.40;4.70;;;;;;;21.92;61.66;101221.88;5093266;28;20044;-65
2021/08/03 04:32:24;;;;;;;5.80;4.57;;;;;;;21.91;61.72;101220.19;5093103;28;20044;-65
2021/08/03 04:34:50;;;;;;;7.10;4.78;;;;;;;21.91;61.81;101230.03;5093235;28;20105;-65
2021/08/03 04:37:17;;;;;;;12.57;5.53;;;;;;;21.92;61.61;101247.75;5093076;28;20044;-65
2021/08/03 04:39:44;;;;;;;9.55;5.53;;;;;;;21.91;61.74;101241.56;5093078;28;20044;-66
2021/08/03 04:42:10;;;;;;;10.30;5.63;;;;;;;21.92;61.69;101248.59;5092878;28;20073;-65
2021/08/03 04:44:37;;;;;;;7.18;5.30;;;;;;;21.94;61.53;101237.75;5092907;28;20040;-65
2021/08/03 04:47:04;;;;;;;10.60;5.97;;;;;;;21.93;61.71;101242.25;5093092;28;20043;-65
2021/08/03 04:49:31;;;;;;;8.45;5.63;;;;;;;21.94;61.75;101248.44;5092893;28;20164;-65
2021/08/03 04:51:59;;;;;;;9.77;5.70;;;;;;;21.93;61.71;101244.94;5092636;28;20048;-65
2021/08/03 04:54:26;;;;;;;8.85;6.00;;;;;;;21.97;61.62;101251.66;5092642;28;20048;-65
2021/08/03 04:56:53;;;;;;;8.13;5.68;;;;;;;21.98;62.16;101247.16;5092460;28;20052;-65
2021/08/03 04:59:20;;;;;;;7.55;6.00;;;;;;;22.00;62.14;101248.69;5092657;28;20056;-65
2021/08/03 05:01:46;;;;;;;9.52;6.00;;;;;;;22.02;62.10;101245.88;5092677;28;20101;-65
2021/08/03 05:04:13;;;;;;;8.02;5.80;;;;;;;22.06;62.00;101243.75;5092502;28;20094;-65
2021/08/03 05:06:40;;;;;;;7.78;5.80;;;;;;;22.06;62.06;101252.59;5092779;28;20048;-65
2021/08/03 05:09:06;;;;;;;7.30;5.47;;;;;;;22.06;61.88;101254.44;5092226;28;20105;-65
2021/08/03 05:11:33;;;;;;;9.52;5.53;;;;;;;22.06;62.13;101239.22;5092485;28;20079;-65
2021/08/03 05:13:59;;;;;;;11.40;5.82;;;;;;;22.12;62.36;101245.81;5092499;28;20044;-65
2021/08/03 05:16:29;;;;;;;9.80;5.63;;;;;;;22.14;62.04;101244.69;5092360;28;20086;-65
2021/08/03 05:18:56;;;;;;;9.52;5.80;;;;;;;22.24;61.73;101249.94;5092358;28;20156;-65
2021/08/03 05:21:23;;;;;;;11.13;5.68;;;;;;;22.21;62.13;101241.38;5092305;28;20039;-65
2021/08/03 05:23:49;;;;;;;10.20;4.85;;;;;;;22.34;61.86;101241.84;5092485;28;20044;-64
2021/08/03 05:26:16;;;;;;;9.25;4.65;;;;;;;22.43;61.42;101245.47;5092432;28;20076;-65
2021/08/03 05:28:43;;;;;;;9.10;4.60;;;;;;;22.49;61.31;101244.88;5092296;28;20532;-65
2021/08/03 05:31:09;;;;;;;6.30;4.10;;;;;;;22.43;61.38;101242.81;5092120;28;20098;-65
2021/08/03 05:33:36;;;;;;;7.35;4.25;;;;;;;22.50;61.12;101238.53;5092253;28;20044;-65
2021/08/03 05:36:03;;;;;;;6.80;4.03;;;;;;;22.54;60.72;101239.03;5092103;28;20044;-65
2021/08/03 05:38:29;;;;;;;11.20;4.72;;;;;;;22.46;61.01;101237.13;5091877;28;20485;-65
2021/08/03 05:40:56;;;;;;;6.97;3.92;;;;;;;22.47;60.48;101244.19;5092335;28;20044;-65
2021/08/03 05:43:22;;;;;;;8.00;3.65;;;;;;;22.52;60.39;101238.38;5092053;28;20044;-65
2021/08/03 05:45:49;;;;;;;5.57;3.50;;;;;;;22.56;60.38;101239.75;5092111;28;20117;-65
2021/08/03 05:48:16;;;;;;;5.82;3.22;;;;;;;22.59;60.29;101234.94;5092074;28;20123;-65
2021/08/03 05:50:42;;;;;;;5.30;3.22;;;;;;;22.66;60.11;101233.34;5092087;28;20044;-65
2021/08/03 05:53:09;;;;;;;8.55;3.35;;;;;;;22.80;59.41;101241.78;5091849;28;20101;-65
2021/08/03 05:55:35;;;;;;;8.38;3.35;;;;;;;22.83;59.41;101238.81;5091993;28;20048;-65
2021/08/03 05:58:02;;;;;;;8.00;3.75;;;;;;;22.82;59.27;101239.81;5092075;28;20097;-65
2021/08/03 06:00:29;;;;;;;6.25;3.25;;;;;;;22.98;58.76;101244.41;5091880;28;20098;-65
2021/08/03 06:02:56;;;;;;;6.70;3.50;;;;;;;23.13;58.46;101239.34;5091925;28;20048;-65
2021/08/03 06:05:23;;;;;;;5.28;3.08;;;;;;;23.15;58.08;101253.44;5091829;28;20056;-65
2021/08/03 06:07:53;;;;;;;8.30;3.90;;;;;;;23.37;57.67;101254.75;5091925;28;20074;-65
2021/08/03 06:10:21;;;;;;;6.95;3.05;;;;;;;23.56;56.90;101252.84;5091775;28;20044;-65
2021/08/03 06:12:49;;;;;;;6.97;3.28;;;;;;;23.55;56.89;101259.19;5091879;28;20404;-65
2021/08/03 06:15:17;;;;;;;6.05;2.83;;;;;;;23.64;56.39;101263.59;5091604;28;20500;-65
2021/08/03 06:17:47;;;;;;;5.40;2.80;;;;;;;23.64;56.22;101253.72;5091901;28;20507;-65
2021/08/03 06:20:14;;;;;;;5.07;2.97;;;;;;;23.60;56.41;101259.56;5092530;28;20039;-65
2021/08/03 06:22:41;;;;;;;6.30;3.33;;;;;;;23.59;56.49;101257.88;5095699;28;20078;-65
2021/08/03 06:25:13;;;;;;;6.38;3.20;;;;;;;23.69;56.24;101257.75;5095579;28;20134;-65
2021/08/03 06:27:41;;;;;;;6.22;3.30;;;;;;;23.84;55.80;101253.47;5095480;28;20101;-65
2021/08/03 06:30:08;;;;;;;6.03;2.80;;;;;;;23.87;55.59;101247.78;5095546;28;20089;-65
2021/08/03 06:32:35;;;;;;;8.85;4.30;;;;;;;23.95;55.18;101250.50;5095614;28;20044;-65
2021/08/03 06:35:02;;;;;;;6.88;3.60;;;;;;;24.12;54.62;101253.25;5095345;28;20044;-65
2021/08/03 06:37:29;;;;;;;8.07;3.15;;;;;;;24.18;54.50;101244.53;5095271;28;20044;-65
2021/08/03 06:39:56;;;;;;;10.10;2.95;;;;;;;24.35;54.04;101245.41;5095328;28;20460;-65
2021/08/03 06:42:44;;;;;;;8.88;3.80;;;;;;;24.42;53.76;101250.97;5095436;28;20086;-65
2021/08/03 06:45:24;;;;;;;5.85;2.80;;;;;;;24.42;53.72;101242.91;5095198;28;20048;-65
2021/08/03 06:48:10;;;;;;;5.53;2.92;;;;;;;24.46;53.55;101245.06;5095226;28;20161;-65
2021/08/03 06:51:03;;;;;;;6.65;4.10;;;;;;;24.57;53.22;101249.28;5095118;28;20048;-65
2021/08/03 06:53:30;;;;;;;6.63;3.30;;;;;;;24.58;53.42;101247.44;5086039;28;20048;-65
2021/08/03 06:56:01;;;;;;;4.40;2.67;;;;;;;24.57;53.48;101260.03;5095161;28;20052;-65
2021/08/03 06:58:58;;;;;;;7.70;2.97;;;;;;;24.62;53.05;101257.69;5094997;28;20463;-65
2021/08/03 07:01:35;;;;;;;3.80;2.22;;;;;;;24.72;52.97;101260.25;5094861;28;20485;-65
2021/08/03 07:04:04;;;;;;;6.78;3.58;;;;;;;24.78;52.75;101270.31;5095065;28;20048;-65
2021/08/03 07:06:34;;;;;;;6.38;3.88;;;;;;;24.95;52.13;101259.56;5094859;28;20481;-65
2021/08/03 07:09:05;;;;;;;9.18;3.70;;;;;;;25.09;52.19;101255.34;5094914;28;20047;-66
2021/08/03 07:11:33;;;;;;;6.85;3.22;;;;;;;24.97;52.82;101254.00;5094821;28;20051;-65
2021/08/03 07:14:00;;;;;;;8.45;3.90;;;;;;;25.07;52.47;101252.81;5094754;28;20094;-65
2021/08/03 07:16:28;;;;;;;3.67;2.45;;;;;;;25.28;51.75;101246.06;5094638;28;20048;-65
2021/08/03 07:18:56;;;;;;;2.28;1.50;;;;;;;25.51;50.75;101242.66;5094623;28;20055;-66
2021/08/03 07:21:26;;;;;;;5.93;1.38;;;;;;;25.53;50.24;101238.78;5094523;28;20048;-65
2021/08/03 07:23:56;;;;;;;3.17;1.42;;;;;;;25.70;49.50;101230.66;5094549;28;20040;-66
2021/08/03 07:26:24;;;;;;;2.55;1.30;;;;;;;25.81;48.70;101229.44;5094525;28;20045;-65
2021/08/03 07:28:51;;;;;;;2.58;1.27;;;;;;;25.94;47.76;101231.53;5094549;28;20101;-66
2021/08/03 07:31:18;;;;;;;2.28;1.23;;;;;;;26.04;47.31;101230.31;5094214;28;20098;-66
2021/08/03 07:33:45;;;;;;;2.22;1.20;;;;;;;26.16;46.90;101219.19;5094424;28;20054;-65
2021/08/03 07:36:15;;;;;;;1.75;1.30;;;;;;;26.26;46.80;101222.47;5094290;28;20110;-65
2021/08/03 07:38:43;;;;;;;2.55;1.17;;;;;;;26.34;46.12;101216.19;5094184;28;20089;-65
2021/08/03 07:41:10;;;;;;;3.45;1.67;;;;;;;26.41;45.71;101203.72;5094129;28;20056;-65
2021/08/03 07:43:39;;;;;;;2.15;1.50;;;;;;;26.52;45.41;101203.25;5094027;28;20052;-65
2021/08/03 07:46:06;;;;;;;2.83;1.60;;;;;;;26.60;45.21;101198.81;5094060;28;20097;-66
2021/08/03 07:48:34;;;;;;;4.10;1.92;;;;;;;26.70;44.69;101194.00;5094077;28;20125;-65
2021/08/03 07:51:01;;;;;;;4.70;1.77;;;;;;;26.77;44.91;101194.19;5094080;28;20051;-65
2021/08/03 07:53:27;;;;;;;3.75;2.28;;;;;;;26.88;45.01;101191.88;5093695;28;20114;-65
2021/08/03 07:55:54;;;;;;;5.93;2.70;;;;;;;26.96;45.06;101196.31;5093983;28;20052;-65
2021/08/03 07:58:20;;;;;;;2.67;1.80;;;;;;;27.07;44.67;101192.34;5093741;28;20044;-65
2021/08/03 08:00:47;;;;;;;5.10;2.00;;;;;;;27.17;44.46;101181.28;5093787;28;20055;-65
2021/08/03 08:03:13;;;;;;;4.90;1.60;;;;;;;27.29;44.37;101185.19;5093687;28;20048;-65
2021/08/03 08:05:40;;;;;;;2.30;1.20;;;;;;;27.37;44.36;101189.63;5093659;28;20060;-65
2021/08/03 08:08:07;;;;;;;3.00;1.40;;;;;;;27.51;44.01;101183.41;5093598;28;20075;-65
2021/08/03 08:10:34;;;;;;;3.92;1.35;;;;;;;27.61;43.59;101177.72;5093736;28;20044;-65
2021/08/03 08:13:01;;;;;;;4.60;1.42;;;;;;;27.69;43.39;101172.22;5093680;28;20047;-65
2021/08/03 08:15:28;;;;;;;2.40;1.30;;;;;;;27.67;43.44;101170.75;5093452;28;20083;-65
2021/08/03 08:17:55;;;;;;;3.47;1.40;;;;;;;27.75;43.43;101169.81;5093440;28;20106;-65
2021/08/03 08:20:22;;;;;;;3.05;1.25;;;;;;;27.88;43.27;101175.31;5093381;28;20044;-65
2021/08/03 08:22:48;;;;;;;3.15;1.42;;;;;;;28.05;42.83;101177.81;5093506;28;20047;-65
2021/08/03 08:25:15;;;;;;;2.55;1.30;;;;;;;28.11;42.82;101177.03;5093201;28;20548;-66
2021/08/03 08:27:42;;;;;;;3.60;1.33;;;;;;;28.22;42.68;101175.69;5093275;28;20040;-65
2021/08/03 08:30:10;;;;;;;2.88;1.42;;;;;;;28.36;43.00;101163.97;5093329;28;20052;-65
2021/08/03 08:32:36;;;;;;;2.80;1.42;;;;;;;28.42;42.68;101174.00;5093246;28;20157;-65
2021/08/03 08:35:04;;;;;;;3.88;1.48;;;;;;;28.49;42.45;101164.09;5093090;28;20048;-65
2021/08/03 08:37:31;;;;;;;2.38;1.08;;;;;;;28.70;41.97;101161.56;5093036;28;20097;-65
2021/08/03 08:39:57;;;;;;;3.22;1.50;;;;;;;28.74;41.68;101160.16;5092961;28;20048;-65
2021/08/03 08:42:25;;;;;;;3.63;1.38;;;;;;;28.83;41.13;101162.47;5092797;28;20040;-65
2021/08/03 08:44:52;;;;;;;1.55;1.35;;;;;;;28.84;41.10;101179.53;5092733;28;20048;-65
2021/08/03 08:47:19;;;;;;;2.42;1.23;;;;;;;28.86;41.23;101171.22;5092758;28;20105;-65
2021/08/03 08:49:46;;;;;;;3.40;1.48;;;;;;;29.07;40.37;101178.44;5093245;28;20101;-65
2021/08/03 08:52:16;;;;;;;3.67;1.40;;;;;;;29.23;40.44;101180.81;5092792;28;20044;-65
2021/08/03 08:54:43;;;;;;;4.25;1.50;;;;;;;29.24;40.00;101177.06;5092542;28;20044;-65
2021/08/03 08:57:09;;;;;;;4.28;1.40;;;;;;;29.47;39.68;101170.53;5092649;28;20062;-65
2021/08/03 08:59:37;;;;;;;2.85;1.38;;;;;;;29.55;39.67;101170.38;5092775;28;20048;-66
2021/08/03 09:02:04;;;;;;;2.75;1.40;;;;;;;29.69;39.22;101173.09;5092722;28;20048;-66
2021/08/03 09:04:31;;;;;;;2.75;1.80;;;;;;;29.72;39.88;101175.41;5092566;28;20040;-66
2021/08/03 09:07:02;;;;;;;3.72;1.70;;;;;;;29.80;39.49;101172.50;5092829;28;20052;-65
2021/08/03 09:09:41;;;;;;;4.20;1.63;;;;;;;29.66;39.32;101166.22;5092581;28;20048;-66
2021/08/03 09:12:08;;;;;;;3.92;1.60;;;;;;;29.80;39.60;101170.66;5092428;28;20547;-66
2021/08/03 09:14:43;;;;;;;3.58;1.63;;;;;;;29.96;39.44;101168.63;5092414;28;20494;-66
2021/08/03 09:17:24;;;;;;;3.03;1.40;;;;;;;30.06;39.13;101169.06;5092360;28;20052;-66
2021/08/03 09:19:51;;;;;;;3.75;1.27;;;;;;;30.39;38.45;101162.00;5092321;28;20083;-66
2021/08/03 09:22:19;;;;;;;3.58;1.40;;;;;;;30.37;38.31;101162.22;5092324;28;20047;-66
2021/08/03 09:24:48;;;;;;;4.60;2.00;;;;;;;30.34;38.66;101159.09;5092380;28;20076;-66
2021/08/03 09:27:39;;;;;;;2.88;1.50;;;;;;;30.35;38.20;101164.28;5092222;28;20101;-66
2021/08/03 09:30:07;;;;;;;3.88;1.60;;;;;;;30.54;38.37;101168.06;5074395;28;20476;-66
2021/08/03 09:32:36;;;;;;;4.60;1.60;;;;;;;30.84;37.57;101154.03;5092456;28;20044;-66
2021/08/03 09:35:15;;;;;;;2.60;1.30;;;;;;;30.88;37.65;101160.72;5092219;28;20482;-66
2021/08/03 09:37:43;;;;;;;5.57;1.48;;;;;;;31.01;37.81;101154.44;5092007;28;20048;-66
2021/08/03 09:40:31;;;;;;;5.22;2.22;;;;;;;31.05;37.67;101160.25;5091962;28;20047;-66
2021/08/03 09:43:08;;;;;;;2.75;1.70;;;;;;;31.22;37.57;101157.94;5091989;28;20550;-66
2021/08/03 09:45:44;;;;;;;4.60;1.30;;;;;;;31.53;36.91;101153.63;5092051;28;20449;-66
2021/08/03 09:48:15;;;;;;;4.97;1.65;;;;;;;31.73;36.30;101150.81;5092081;28;20044;-66
2021/08/03 09:51:05;;;;;;;2.75;1.40;;;;;;;31.98;36.19;101150.03;5092252;28;20044;-66
2021/08/03 09:53:52;;;;;;;5.18;1.40;;;;;;;32.33;35.42;101141.41;5092094;28;20044;-66
2021/08/03 09:56:24;;;;;;;4.97;1.63;;;;;;;31.98;36.09;101131.84;5094471;28;20052;-66
2021/08/03 09:59:12;;;;;;;3.22;1.50;;;;;;;31.37;37.24;101146.81;5096063;28;20126;-66
2021/08/03 10:01:41;;;;;;;3.13;1.52;;;;;;;31.06;38.07;101137.56;5096078;28;20047;-66
2021/08/03 10:04:11;;;;;;;3.60;1.65;;;;;;;31.88;36.34;101140.50;5095645;28;20059;-66
2021/08/03 10:06:39;;;;;;;2.90;1.48;;;;;;;32.13;35.45;101130.72;5096085;28;20048;-66
2021/08/03 10:09:09;;;;;;;2.67;1.00;;;;;;;32.16;35.21;101131.06;5095672;28;20449;-66
2021/08/03 10:11:36;;;;;;;1.95;1.20;;;;;;;32.40;34.63;101131.34;5095993;28;20044;-66
2021/08/03 10:14:22;;;;;;;2.50;1.42;;;;;;;32.67;34.26;101129.19;5096337;28;20083;-66
2021/08/03 10:16:51;;;;;;;3.85;1.40;;;;;;;32.85;33.36;101128.41;5095862;28;20460;-66
2021/08/03 10:19:24;;;;;;;3.90;1.70;;;;;;;32.98;33.31;101124.69;5095643;28;20051;-66
2021/08/03 10:22:15;;;;;;;4.57;1.38;;;;;;;32.94;32.89;101119.91;5095740;28;20044;-66
2021/08/03 10:24:52;;;;;;;3.80;1.38;;;;;;;33.03;32.49;101113.16;5095589;28;20044;-66
2021/08/03 10:27:19;;;;;;;3.40;1.50;;;;;;;33.09;32.33;101119.53;5095615;28;20052;-66
2021/08/03 10:29:50;;;;;;;3.00;1.40;;;;;;;33.31;31.97;101112.59;5095563;28;20040;-66
2021/08/03 10:32:40;;;;;;;2.88;1.40;;;;;;;33.54;31.71;101106.41;5095435;28;20121;-66
2021/08/03 10:35:13;;;;;;;5.03;1.55;;;;;;;33.75;31.10;101098.78;5095434;28;20044;-66
2021/08/03 10:37:58;;;;;;;2.42;1.30;;;;;;;33.73;31.25;101098.19;5095535;28;20044;-66
2021/08/03 10:40:43;;;;;;;2.58;1.20;;;;;;;32.93;32.88;101096.53;5095136;28;20101;-66
2021/08/03 10:43:23;;;;;;;2.45;1.15;;;;;;;32.78;32.68;101089.59;5095284;28;20417;-66
2021/08/03 10:46:09;;;;;;;2.15;1.13;;;;;;;33.28;31.44;101085.00;5095309;28;20044;-66
2021/08/03 10:48:39;;;;;;;2.35;1.23;;;;;;;33.62;30.22;101082.66;5081629;28;20054;-66
2021/08/03 10:51:18;;;;;;;3.47;1.20;;;;;;;33.97;29.89;101077.28;5095246;28;20044;-66
2021/08/03 10:54:07;;;;;;;2.40;1.40;;;;;;;32.36;32.41;101073.91;5094898;28;20511;-66
2021/08/03 10:56:52;;;;;;;2.67;1.23;;;;;;;31.81;33.24;101087.31;5094964;28;20056;-66
2021/08/03 10:59:33;;;;;;;4.13;1.30;;;;;;;32.06;32.78;101085.44;5094933;28;20048;-66
2021/08/03 11:02:03;;;;;;;2.65;1.27;;;;;;;32.72;31.89;101079.59;5095094;28;20094;-66
2021/08/03 11:04:42;;;;;;;4.75;1.25;;;;;;;32.99;31.03;101077.41;5094905;28;20463;-66
2021/08/03 11:07:24;;;;;;;3.97;1.60;;;;;;;33.76;30.08;101072.38;5094311;28;20052;-66
2021/08/03 11:09:59;;;;;;;3.15;1.63;;;;;;;34.09;29.97;101063.66;5094966;28;20464;-66
2021/08/03 11:12:48;;;;;;;2.30;1.45;;;;;;;34.38;29.32;101063.00;5094817;28;20044;-66
2021/08/03 11:15:21;;;;;;;3.33;1.30;;;;;;;34.32;29.71;101053.84;5094697;28;20040;-66
2021/08/03 11:18:03;;;;;;;3.40;1.27;;;;;;;34.46;29.87;101060.75;5094888;28;20044;-66
2021/08/03 11:20:41;;;;;;;4.13;1.58;;;;;;;34.71;29.43;101062.34;5094488;28;20468;-66
2021/08/03 11:23:12;;;;;;;4.78;1.55;;;;;;;34.70;29.19;101059.84;5094480;28;20490;-66
2021/08/03 11:25:40;;;;;;;3.75;1.15;;;;;;;35.01;28.26;101050.44;5094512;28;20468;-66
2021/08/03 11:28:21;;;;;;;3.08;1.30;;;;;;;34.98;28.08;101043.56;5094535;28;20048;-66
2021/08/03 11:30:50;;;;;;;3.13;1.40;;;;;;;35.10;28.11;101040.78;5094425;28;20052;-66
2021/08/03 11:33:19;;;;;;;2.67;1.23;;;;;;;35.10;27.70;101034.50;5094306;28;20051;-66
2021/08/03 11:35:46;;;;;;;4.55;1.30;;;;;;;35.25;27.57;101037.50;5094350;28;20502;-66
2021/08/03 11:38:15;;;;;;;3.63;1.17;;;;;;;35.25;27.60;101036.66;5094199;28;20097;-66
2021/08/03 11:40:42;;;;;;;3.17;1.33;;;;;;;35.24;27.55;101029.56;5094140;28;20069;-66